Time;durP1;ratioP1;P1;durP2;ratioP2;P2;SDS_P1;SDS_P2;PMS_P1;PMS_P2;Temp;Humidity;BMP_temperature;BMP_pressure;BME280_temperature;BME280_humidity;BME280_pressure;Samples;Min_cycle;Max_cycle;Signal;HPM_P1;HPM_P2
2023/07/01 00:02:05;;;;;;;3.15;2.58;;;;;;;17.05;100.00;100221.81;5081753;28;20084;-55
2023/07/01 00:04:32;;;;;;;5.70;3.63;;;;;;;17.04;100.00;100216.66;5076868;28;20088;-52
2023/07/01 00:06:59;;;;;;;4.63;3.10;;;;;;;17.04;100.00;100217.50;5069855;28;21415;-55
2023/07/01 00:09:27;;;;;;;6.28;3.40;;;;;;;17.04;100.00;100216.66;5065849;28;20147;-54
2023/07/01 00:11:55;;;;;;;13.02;3.58;;;;;;;17.04;100.00;100201.53;5066838;28;20418;-55
2023/07/01 00:14:22;;;;;;;5.97;3.38;;;;;;;17.06;100.00;100212.03;5069124;28;20528;-54
2023/07/01 00:16:49;;;;;;;4.57;3.17;;;;;;;17.05;100.00;100213.00;5068548;28;20152;-56
2023/07/01 00:19:17;;;;;;;3.67;2.83;;;;;;;17.05;100.00;100208.53;5067025;28;20123;-53
2023/07/01 00:21:45;;;;;;;5.40;3.75;;;;;;;17.04;100.00;100208.69;5067269;28;20544;-54
2023/07/01 00:24:13;;;;;;;6.05;3.10;;;;;;;17.04;100.00;100211.34;5063912;28;20412;-58
2023/07/01 00:26:40;;;;;;;6.00;3.95;;;;;;;17.03;100.00;100205.19;5068546;28;20053;-54
2023/07/01 00:29:07;;;;;;;5.40;3.95;;;;;;;17.03;100.00;100199.88;5063646;28;20080;-57
2023/07/01 00:31:34;;;;;;;6.78;3.70;;;;;;;17.02;100.00;100198.19;5068577;28;20132;-53
2023/07/01 00:34:01;;;;;;;6.13;3.95;;;;;;;17.02;100.00;100211.50;5068076;28;20094;-56
2023/07/01 00:36:29;;;;;;;5.18;3.97;;;;;;;17.02;100.00;100205.31;5069332;28;20562;-54
2023/07/01 00:38:56;;;;;;;5.97;4.78;;;;;;;16.99;100.00;100209.09;5048717;28;20060;-54
2023/07/01 00:41:23;;;;;;;6.90;4.03;;;;;;;16.97;100.00;100200.41;5066996;28;20058;-52
2023/07/01 00:43:50;;;;;;;8.60;4.03;;;;;;;16.99;100.00;100195.81;5068048;28;20100;-49
2023/07/01 00:46:18;;;;;;;7.07;4.13;;;;;;;17.01;100.00;100199.16;5064647;28;20058;-52
2023/07/01 00:48:45;;;;;;;7.45;4.32;;;;;;;17.03;100.00;100197.22;5068997;28;20389;-51
2023/07/01 00:51:12;;;;;;;9.40;3.95;;;;;;;17.03;100.00;100191.88;5068829;28;20135;-55
2023/07/01 00:53:40;;;;;;;9.02;4.28;;;;;;;17.04;100.00;100188.25;5075048;28;20159;-55
2023/07/01 00:56:07;;;;;;;7.68;4.30;;;;;;;17.05;100.00;100183.75;5071999;28;20072;-54
2023/07/01 00:58:34;;;;;;;6.90;4.10;;;;;;;17.06;100.00;100183.59;5069031;28;20151;-51
2023/07/01 01:01:06;;;;;;;8.00;3.95;;;;;;;17.06;100.00;100183.59;5068558;28;20161;-52
2023/07/01 01:03:43;;;;;;;8.13;4.50;;;;;;;17.08;100.00;100180.81;5051735;28;20450;-52
2023/07/01 01:06:17;;;;;;;8.80;4.45;;;;;;;17.06;100.00;100182.75;5051703;28;20171;-52
2023/07/01 01:09:03;;;;;;;4.68;4.18;;;;;;;17.06;100.00;100180.09;5049343;28;20115;-52
2023/07/01 01:11:40;;;;;;;7.57;3.95;;;;;;;17.07;100.00;100177.31;5050917;28;20052;-57
2023/07/01 01:14:09;;;;;;;5.85;3.95;;;;;;;17.07;100.00;100176.50;5054492;28;20052;-51
2023/07/01 01:16:38;;;;;;;5.55;4.45;;;;;;;17.06;100.00;100165.00;5066185;28;20158;-54
2023/07/01 01:19:19;;;;;;;7.47;5.10;;;;;;;17.04;100.00;100164.31;5050708;28;20144;-55
2023/07/01 01:22:10;;;;;;;6.00;4.95;;;;;;;17.04;100.00;100160.81;5062888;28;20595;-54
2023/07/01 01:24:41;;;;;;;9.60;4.45;;;;;;;17.01;100.00;100155.75;5065678;28;20155;-57
2023/07/01 01:27:13;;;;;;;7.10;4.72;;;;;;;17.00;100.00;100160.25;5067973;28;20468;-58
2023/07/01 01:29:41;;;;;;;4.97;4.53;;;;;;;17.00;100.00;100162.06;5047427;28;20599;-53
2023/07/01 01:32:58;;;;;;;8.48;5.13;;;;;;;17.00;100.00;100157.59;5067197;28;20155;-57
2023/07/01 01:35:25;;;;;;;7.35;5.13;;;;;;;16.99;100.00;100149.78;5062771;28;20052;-53
2023/07/01 01:38:05;;;;;;;7.05;5.40;;;;;;;16.98;100.00;100151.59;5063774;28;20210;-54
2023/07/01 01:40:57;;;;;;;6.43;4.65;;;;;;;16.98;100.00;100148.09;5063871;28;20688;-51
2023/07/01 01:43:58;;;;;;;5.80;4.55;;;;;;;16.98;100.00;100140.13;5060251;28;20052;-54
2023/07/01 01:46:25;;;;;;;5.90;4.88;;;;;;;16.99;100.00;100141.78;5065372;28;20135;-51
2023/07/01 01:48:56;;;;;;;6.85;4.38;;;;;;;16.98;100.00;100138.28;5064579;28;20141;-54
2023/07/01 01:51:24;;;;;;;8.13;5.40;;;;;;;16.97;100.00;100131.28;5047951;28;20084;-57
2023/07/01 01:53:52;;;;;;;5.38;4.80;;;;;;;16.98;100.00;100132.97;5048591;28;20080;-52
2023/07/01 01:56:20;;;;;;;6.18;5.05;;;;;;;16.97;100.00;100131.28;5050447;28;20725;-56
2023/07/01 02:01:40;;;;;;;7.82;5.70;;;;;;;16.95;100.00;100127.94;5066027;28;20083;-56
2023/07/01 02:04:07;;;;;;;8.65;5.43;;;;;;;16.96;100.00;100118.97;5067691;28;20175;-58
2023/07/01 02:06:35;;;;;;;6.25;5.30;;;;;;;16.96;100.00;100122.47;5067169;28;20054;-54
2023/07/01 02:09:04;;;;;;;7.28;4.97;;;;;;;16.97;100.00;100115.31;5066889;28;20048;-53
2023/07/01 02:11:31;;;;;;;5.88;5.00;;;;;;;16.95;100.00;100115.47;5064131;28;20048;-54
2023/07/01 02:13:58;;;;;;;6.72;5.43;;;;;;;16.94;100.00;100107.66;5061923;28;20060;-54
2023/07/01 02:16:25;;;;;;;7.90;5.40;;;;;;;16.93;100.00;100116.59;5067665;28;20126;-54
2023/07/01 02:18:52;;;;;;;7.18;5.20;;;;;;;16.93;100.00;100112.13;5065668;28;20057;-51
2023/07/01 02:21:20;;;;;;;6.35;5.22;;;;;;;16.92;100.00;100122.91;5063751;28;20143;-57
2023/07/01 02:23:47;;;;;;;6.13;4.68;;;;;;;16.90;100.00;100111.59;5062995;28;20067;-55
2023/07/01 02:26:14;;;;;;;9.65;5.47;;;;;;;16.90;100.00;100116.91;5068844;28;20102;-50
2023/07/01 02:28:41;;;;;;;6.97;4.75;;;;;;;16.89;100.00;100113.41;5066253;28;20135;-54
2023/07/01 02:31:08;;;;;;;7.15;5.00;;;;;;;16.87;100.00;100107.38;5071493;28;20128;-55
2023/07/01 02:33:36;;;;;;;11.30;5.15;;;;;;;16.85;100.00;100114.66;5070577;28;20048;-53
2023/07/01 02:36:03;;;;;;;6.95;5.35;;;;;;;16.83;100.00;100105.97;5069761;28;20044;-51
2023/07/01 02:38:30;;;;;;;8.88;5.03;;;;;;;16.83;100.00;100111.28;5068644;28;20596;-56
2023/07/01 02:40:58;;;;;;;6.43;5.82;;;;;;;16.82;100.00;100111.44;5068580;28;20061;-52
2023/07/01 02:43:25;;;;;;;7.30;5.95;;;;;;;16.80;100.00;100102.78;5069019;28;20135;-52
2023/07/01 02:45:52;;;;;;;6.95;4.82;;;;;;;16.77;100.00;100106.56;5075986;28;20140;-55
2023/07/01 02:48:19;;;;;;;9.15;5.82;;;;;;;16.76;100.00;100102.22;5076813;28;20553;-53
2023/07/01 02:50:46;;;;;;;7.10;6.30;;;;;;;16.75;100.00;100099.69;5069071;28;20057;-56
2023/07/01 02:53:20;;;;;;;7.93;6.03;;;;;;;16.71;100.00;100101.78;5071464;28;20114;-57
2023/07/01 02:55:47;;;;;;;7.05;6.30;;;;;;;16.68;100.00;100100.25;5067537;28;20059;-53
2023/07/01 02:58:14;;;;;;;7.72;6.95;;;;;;;16.68;100.00;100086.97;5067483;28;20443;-56
2023/07/01 03:00:42;;;;;;;8.02;6.10;;;;;;;16.67;100.00;100082.63;5071119;28;20064;-50
2023/07/01 03:03:09;;;;;;;9.45;5.93;;;;;;;16.67;100.00;100087.13;5066491;28;20070;-55
2023/07/01 03:05:37;;;;;;;10.65;6.00;;;;;;;16.64;100.00;100093.53;5071380;28;20596;-52
2023/07/01 03:08:05;;;;;;;7.60;6.07;;;;;;;16.61;100.00;100083.19;5071613;28;20106;-53
2023/07/01 03:10:32;;;;;;;8.20;6.57;;;;;;;16.60;100.00;100072.69;5071705;28;20061;-54
2023/07/01 03:13:00;;;;;;;6.70;5.95;;;;;;;16.60;100.00;100075.38;5073243;28;20140;-59
2023/07/01 03:15:28;;;;;;;8.10;6.75;;;;;;;16.59;100.00;100074.53;5054323;28;20867;-51
2023/07/01 03:17:55;;;;;;;7.03;6.05;;;;;;;16.56;100.00;100074.81;5070568;28;20132;-54
2023/07/01 03:20:25;;;;;;;7.80;6.40;;;;;;;16.54;100.00;100066.16;5066169;28;20560;-54
2023/07/01 03:22:58;;;;;;;8.32;6.97;;;;;;;16.53;100.00;100055.69;5097422;22;20048;-89
2023/07/01 03:25:26;;;;;;;7.22;5.50;;;;;;;16.49;100.00;100057.78;5062088;28;20037;-85
2023/07/01 03:27:54;;;;;;;8.07;6.40;;;;;;;16.48;100.00;100056.09;5029279;28;20560;-84
2023/07/01 03:30:28;;;;;;;8.80;6.93;;;;;;;16.47;100.00;100057.06;5046730;28;20048;-85
2023/07/01 03:32:57;;;;;;;;;;;;;;;16.47;100.00;100051.75;5043823;28;20067;-88
2023/07/01 03:35:25;;;;;;;10.15;7.70;;;;;;;16.46;100.00;100055.38;5049407;23;19998;-51
2023/07/01 03:37:53;;;;;;;11.75;6.93;;;;;;;16.45;100.00;100051.91;5064855;28;20474;-56
2023/07/01 03:40:20;;;;;;;7.85;7.15;;;;;;;16.45;100.00;100057.22;5066307;28;20141;-55
2023/07/01 03:42:47;;;;;;;7.50;6.80;;;;;;;16.45;100.00;100061.69;5063111;28;20835;-55
2023/07/01 03:45:14;;;;;;;7.93;7.10;;;;;;;16.44;100.00;100055.53;5061028;28;20412;-55
2023/07/01 03:47:43;;;;;;;7.30;6.53;;;;;;;16.44;100.00;100057.38;5070012;28;20634;-56
2023/07/01 03:50:14;;;;;;;11.65;7.53;;;;;;;16.45;100.00;100065.19;5064373;28;20045;-52
2023/07/01 03:52:41;;;;;;;10.07;7.82;;;;;;;16.46;100.00;100063.34;5067209;28;20407;-53
2023/07/01 03:55:14;;;;;;;11.40;7.32;;;;;;;16.49;100.00;100060.44;5068248;28;20322;-57
2023/07/01 03:57:41;;;;;;;13.45;7.57;;;;;;;16.52;100.00;100067.25;5063825;28;20091;-53
2023/07/01 04:00:17;;;;;;;10.82;7.60;;;;;;;16.56;100.00;100068.66;5067780;28;20102;-52
2023/07/01 04:02:48;;;;;;;8.57;7.78;;;;;;;16.58;100.00;100072.03;5070434;28;20148;-53
2023/07/01 04:05:18;;;;;;;13.00;8.18;;;;;;;16.55;100.00;100067.81;5068082;28;20084;-57
2023/07/01 04:07:47;;;;;;;10.50;7.88;;;;;;;16.61;100.00;100066.41;5069428;28;20057;-56
2023/07/01 04:10:15;;;;;;;12.55;8.57;;;;;;;16.69;100.00;100066.53;5063642;28;20131;-54
2023/07/01 04:12:42;;;;;;;8.98;8.05;;;;;;;16.75;100.00;100071.31;5064881;28;20147;-54
2023/07/01 04:15:09;;;;;;;10.43;7.95;;;;;;;16.76;100.00;100064.19;5069605;28;20763;-50
2023/07/01 04:17:40;;;;;;;9.38;7.63;;;;;;;16.73;100.00;100069.78;5052108;28;20095;-53
2023/07/01 04:20:09;;;;;;;11.13;8.48;;;;;;;16.76;100.00;100064.19;5067760;28;20053;-55
2023/07/01 04:22:37;;;;;;;11.73;9.07;;;;;;;16.78;100.00;100064.88;5070291;28;20084;-57
2023/07/01 04:25:04;;;;;;;9.55;8.38;;;;;;;16.85;100.00;100056.19;5068259;28;20045;-57
2023/07/01 04:27:32;;;;;;;8.82;7.95;;;;;;;16.92;100.00;100059.09;5066189;28;20049;-53
2023/07/01 04:29:59;;;;;;;9.27;7.03;;;;;;;16.93;100.00;100058.97;5068861;28;20159;-54
2023/07/01 04:32:28;;;;;;;9.07;7.65;;;;;;;16.88;100.00;100053.22;5067918;28;20148;-54
2023/07/01 04:34:55;;;;;;;8.93;7.30;;;;;;;16.84;100.00;100043.88;5066214;28;20048;-54
2023/07/01 04:37:23;;;;;;;9.50;8.52;;;;;;;16.85;100.00;100045.53;5068178;28;20462;-55
2023/07/01 04:39:50;;;;;;;11.95;7.50;;;;;;;16.92;100.00;100043.13;5066736;28;20148;-51
2023/07/01 04:42:18;;;;;;;8.30;7.32;;;;;;;16.99;100.00;100038.91;5062995;28;20052;-54
2023/07/01 04:44:53;;;;;;;7.57;6.78;;;;;;;17.04;100.00;100047.28;5066803;28;20048;-53
2023/07/01 04:47:22;;;;;;;9.70;6.85;;;;;;;17.06;100.00;100044.47;5068704;28;20132;-55
2023/07/01 04:49:52;;;;;;;11.95;7.07;;;;;;;17.09;100.00;100039.72;5061426;28;20136;-52
2023/07/01 04:52:21;;;;;;;10.10;6.82;;;;;;;17.17;100.00;100034.50;5067136;28;20078;-54
2023/07/01 04:54:48;;;;;;;6.82;6.13;;;;;;;17.24;100.00;100036.56;5046055;28;20084;-56
2023/07/01 04:57:16;;;;;;;9.45;6.70;;;;;;;17.31;100.00;100033.16;5066005;28;20060;-53
2023/07/01 04:59:43;;;;;;;12.63;7.35;;;;;;;17.33;100.00;100035.69;5064852;28;20056;-55
2023/07/01 05:02:10;;;;;;;10.38;6.40;;;;;;;17.44;100.00;100027.50;5069121;28;20567;-55
2023/07/01 05:04:38;;;;;;;16.45;7.13;;;;;;;17.54;100.00;100036.25;5067720;28;20155;-54
2023/07/01 05:07:06;;;;;;;14.15;6.40;;;;;;;17.58;100.00;100029.66;5060402;28;20139;-55
2023/07/01 05:09:33;;;;;;;7.65;5.22;;;;;;;17.60;100.00;100030.31;5049841;28;20865;-56
2023/07/01 05:12:00;;;;;;;7.82;6.55;;;;;;;17.57;99.94;100029.81;5061348;28;20121;-56
2023/07/01 05:14:27;;;;;;;7.90;5.65;;;;;;;17.57;99.05;100025.31;5067818;28;20056;-55
2023/07/01 05:16:55;;;;;;;7.53;6.35;;;;;;;17.61;98.98;100018.72;5070035;28;20083;-57
2023/07/01 05:19:22;;;;;;;21.15;7.45;;;;;;;17.58;97.12;100029.66;5066508;28;20135;-57
2023/07/01 05:21:53;;;;;;;6.30;5.10;;;;;;;17.55;97.21;100032.59;5067372;28;20139;-57
2023/07/01 05:24:21;;;;;;;11.93;6.13;;;;;;;17.61;96.96;100031.19;5066301;28;20528;-55
2023/07/01 05:26:49;;;;;;;9.30;5.88;;;;;;;17.54;96.83;100030.94;5066345;28;20084;-54
2023/07/01 05:29:24;;;;;;;10.02;6.30;;;;;;;17.64;96.77;100028.22;5062499;28;20423;-57
2023/07/01 05:31:52;;;;;;;;;;;;;;;17.65;95.11;100025.41;5063849;28;20051;-57
2023/07/01 05:34:19;;;;;;;8.77;6.28;;;;;;;17.67;94.83;100033.25;5061559;28;19959;-55
2023/07/01 05:36:46;;;;;;;11.60;5.35;;;;;;;17.77;94.93;100033.19;5064259;28;20136;-53
2023/07/01 05:39:14;;;;;;;9.90;5.35;;;;;;;17.77;93.29;100034.03;5068581;28;20452;-55
2023/07/01 05:41:41;;;;;;;7.03;5.20;;;;;;;17.71;91.93;100029.28;5065411;28;20053;-55
2023/07/01 05:44:10;;;;;;;8.00;5.30;;;;;;;17.63;91.58;100032.69;5057745;28;20044;-56
2023/07/01 05:46:39;;;;;;;12.70;6.30;;;;;;;17.71;90.80;100030.13;5050569;28;20052;-53
2023/07/01 05:49:07;;;;;;;6.82;4.60;;;;;;;17.84;90.14;100027.13;5066702;28;20231;-53
2023/07/01 05:51:34;;;;;;;8.80;4.82;;;;;;;17.93;89.54;100033.38;5064112;28;20135;-55
2023/07/01 05:54:01;;;;;;;6.70;4.95;;;;;;;18.00;89.68;100039.75;5065912;28;20668;-52
2023/07/01 05:56:31;;;;;;;6.40;5.80;;;;;;;17.96;88.95;100030.38;5064059;28;20135;-52
2023/07/01 05:58:58;;;;;;;8.63;4.65;;;;;;;18.08;89.47;100025.69;5064445;28;20139;-57
2023/07/01 06:01:26;;;;;;;13.60;5.55;;;;;;;18.17;88.59;100030.91;5061024;28;20140;-57
2023/07/01 06:03:53;;;;;;;14.80;6.38;;;;;;;18.24;88.52;100028.50;5040783;28;20345;-56
2023/07/01 06:06:21;;;;;;;8.70;5.20;;;;;;;18.37;87.94;100030.72;5047272;28;20522;-54
2023/07/01 06:08:48;;;;;;;6.75;4.68;;;;;;;18.45;88.07;100028.97;5055527;28;20053;-54
2023/07/01 06:11:15;;;;;;;9.80;5.47;;;;;;;18.43;87.51;100032.78;5065593;28;20500;-55
2023/07/01 06:13:46;;;;;;;8.23;5.15;;;;;;;18.51;87.18;100026.66;5062745;28;20143;-53
2023/07/01 06:16:14;;;;;;;8.43;5.68;;;;;;;18.55;86.22;100026.22;5067794;28;20447;-53
2023/07/01 06:18:42;;;;;;;9.30;5.00;;;;;;;18.63;85.95;100025.41;5062396;28;20111;-53
2023/07/01 06:21:09;;;;;;;4.57;4.10;;;;;;;18.77;84.49;100032.03;5068375;28;20361;-55
2023/07/01 06:23:37;;;;;;;7.43;4.30;;;;;;;18.58;82.74;100025.88;5070849;28;20135;-52
2023/07/01 06:26:05;;;;;;;6.43;4.10;;;;;;;18.52;83.54;100020.34;5072357;28;20140;-54
2023/07/01 06:28:32;;;;;;;9.13;5.20;;;;;;;18.60;83.33;100021.25;5065148;28;20072;-53
2023/07/01 06:31:00;;;;;;;10.50;4.22;;;;;;;18.76;82.44;100025.03;5071497;28;20215;-55
2023/07/01 06:33:27;;;;;;;6.93;4.35;;;;;;;18.85;80.56;100027.59;5070968;28;20067;-53
2023/07/01 06:35:54;;;;;;;5.50;4.22;;;;;;;18.88;78.74;100032.59;5070029;28;20083;-53
2023/07/01 06:38:22;;;;;;;8.00;3.50;;;;;;;18.80;77.45;100019.22;5066506;28;20497;-51
2023/07/01 06:40:49;;;;;;;5.55;3.53;;;;;;;18.76;76.63;100025.03;5067167;28;20088;-55
2023/07/01 06:43:16;;;;;;;7.43;3.83;;;;;;;18.72;76.88;100011.19;5066975;28;20080;-55
2023/07/01 06:45:44;;;;;;;5.25;4.05;;;;;;;18.82;76.41;100019.06;5068799;28;20079;-54
2023/07/01 06:48:11;;;;;;;7.28;3.72;;;;;;;19.00;76.63;100018.97;5062134;28;20056;-54
2023/07/01 06:50:38;;;;;;;7.88;3.60;;;;;;;19.06;75.61;100021.03;5070968;28;20143;-52
2023/07/01 06:53:06;;;;;;;6.22;3.88;;;;;;;19.15;75.00;100015.56;5070709;28;20503;-52
2023/07/01 06:55:33;;;;;;;6.45;3.55;;;;;;;19.23;75.39;100012.09;5071399;28;20056;-53
2023/07/01 06:58:02;;;;;;;6.60;3.72;;;;;;;19.32;75.65;100005.81;5066189;28;20072;-54
2023/07/01 07:00:30;;;;;;;7.00;2.67;;;;;;;19.51;72.27;100003.84;5069318;28;20137;-56
2023/07/01 07:02:57;;;;;;;4.20;2.88;;;;;;;19.62;71.90;99992.88;5071836;28;20140;-57
2023/07/01 07:05:25;;;;;;;8.27;3.63;;;;;;;19.80;71.66;100001.59;5070996;28;20164;-56
2023/07/01 07:07:53;;;;;;;7.75;3.60;;;;;;;19.79;70.97;99999.09;5075740;28;20102;-53
2023/07/01 07:10:20;;;;;;;8.85;3.72;;;;;;;19.84;70.54;99992.25;5076511;28;20112;-51
2023/07/01 07:12:47;;;;;;;6.47;3.90;;;;;;;20.03;68.79;99991.06;5073829;28;20123;-54
2023/07/01 07:15:14;;;;;;;6.65;3.35;;;;;;;20.08;68.93;99990.56;5070712;28;20166;-57
2023/07/01 07:17:42;;;;;;;8.73;2.90;;;;;;;20.05;66.41;99991.75;5078316;28;20065;-53
2023/07/01 07:20:09;;;;;;;5.65;2.70;;;;;;;20.17;66.62;99985.09;5076398;28;20052;-52
2023/07/01 07:22:37;;;;;;;5.15;2.67;;;;;;;20.18;66.00;99989.41;5070468;28;20094;-54
2023/07/01 07:25:04;;;;;;;8.52;3.10;;;;;;;20.37;64.42;99998.09;5072483;28;20076;-52
2023/07/01 07:27:31;;;;;;;7.25;2.38;;;;;;;20.40;61.38;99985.22;5069969;28;20052;-54
2023/07/01 07:29:59;;;;;;;6.25;2.40;;;;;;;20.44;60.16;99981.22;5064397;28;20083;-55
2023/07/01 07:32:26;;;;;;;6.18;2.15;;;;;;;20.38;58.47;99976.53;5052626;28;20501;-55
2023/07/01 07:34:53;;;;;;;4.63;1.80;;;;;;;20.53;58.18;99986.56;5071201;28;20087;-56
2023/07/01 07:37:20;;;;;;;2.92;1.60;;;;;;;20.60;55.60;99984.88;5052275;28;20052;-50
2023/07/01 07:39:48;;;;;;;2.70;2.08;;;;;;;20.55;54.01;99992.59;5072181;28;21092;-57
2023/07/01 07:42:15;;;;;;;9.45;2.33;;;;;;;20.55;54.89;99979.22;5070583;28;20065;-55
2023/07/01 07:44:42;;;;;;;6.07;1.88;;;;;;;20.68;54.73;99985.69;5062576;28;20166;-53
2023/07/01 07:47:10;;;;;;;5.43;1.67;;;;;;;20.74;53.63;99976.97;5069619;28;20139;-54
2023/07/01 07:49:37;;;;;;;3.35;1.77;;;;;;;20.81;54.16;99976.31;5071890;28;20144;-53
2023/07/01 07:52:04;;;;;;;3.30;1.98;;;;;;;20.91;53.33;99958.19;5069616;28;20416;-54
2023/07/01 07:54:31;;;;;;;2.45;1.40;;;;;;;20.91;52.11;99971.59;5070671;28;20131;-53
2023/07/01 07:56:59;;;;;;;4.53;1.80;;;;;;;20.81;50.25;99960.25;5066202;28;20505;-51
2023/07/01 07:59:27;;;;;;;5.30;2.40;;;;;;;20.91;49.38;99966.22;5060571;28;20044;-56
2023/07/01 08:01:57;;;;;;;4.63;1.77;;;;;;;20.92;49.42;99974.06;5069933;28;20132;-56
2023/07/01 08:04:25;;;;;;;4.68;1.90;;;;;;;20.98;48.37;99978.75;5070335;28;20076;-61
2023/07/01 08:06:52;;;;;;;3.63;2.03;;;;;;;20.96;48.83;99962.03;5070069;28;20422;-55
2023/07/01 08:09:19;;;;;;;3.05;1.70;;;;;;;21.04;48.97;99965.69;5068822;28;20154;-53
2023/07/01 08:11:47;;;;;;;3.35;1.70;;;;;;;20.86;48.64;99968.59;5068811;28;20135;-55
2023/07/01 08:14:14;;;;;;;5.72;1.92;;;;;;;20.96;48.89;99958.50;5062367;28;20050;-55
2023/07/01 08:16:41;;;;;;;7.15;1.80;;;;;;;21.14;49.13;99944.88;5068849;28;20531;-55
2023/07/01 08:19:09;;;;;;;5.38;1.70;;;;;;;21.36;49.03;99949.47;5069040;28;20135;-53
2023/07/01 08:21:37;;;;;;;5.97;1.83;;;;;;;21.41;48.13;99951.63;5067396;28;20071;-52
2023/07/01 08:24:08;;;;;;;4.15;2.40;;;;;;;21.42;48.10;99948.75;5063745;28;20072;-55
2023/07/01 08:26:36;;;;;;;4.53;2.03;;;;;;;21.35;48.06;99942.47;5060984;28;20067;-53
2023/07/01 08:29:06;;;;;;;4.10;1.90;;;;;;;21.47;46.57;99946.38;5064299;28;20143;-56
2023/07/01 08:31:33;;;;;;;3.42;1.50;;;;;;;21.43;47.74;99942.41;5056699;28;20200;-55
2023/07/01 08:34:01;;;;;;;7.13;1.60;;;;;;;21.51;46.84;99929.97;5068196;28;20054;-51
2023/07/01 08:36:29;;;;;;;7.25;1.50;;;;;;;21.66;46.45;99944.25;5067943;28;20048;-52
2023/07/01 08:38:56;;;;;;;3.03;1.48;;;;;;;21.65;44.66;99945.25;5067144;28;20127;-55
2023/07/01 08:41:25;;;;;;;3.28;1.65;;;;;;;21.34;45.17;99935.41;5070017;28;20120;-55
2023/07/01 08:43:53;;;;;;;4.60;1.67;;;;;;;21.52;45.55;99940.47;5068146;28;20433;-56
2023/07/01 08:46:20;;;;;;;7.53;1.80;;;;;;;21.43;45.49;99936.19;5069807;28;20063;-57
2023/07/01 08:48:48;;;;;;;7.65;1.58;;;;;;;21.51;45.58;99936.16;5065701;28;20091;-57
2023/07/01 08:51:26;;;;;;;3.05;1.50;;;;;;;21.64;44.97;99924.84;5071323;28;20078;-52
2023/07/01 08:53:53;;;;;;;3.65;1.52;;;;;;;21.69;44.94;99922.47;5071436;28;20080;-54
2023/07/01 08:56:21;;;;;;;2.90;1.70;;;;;;;21.89;44.56;99922.81;5071645;28;20075;-54
2023/07/01 08:58:48;;;;;;;5.10;1.40;;;;;;;21.97;44.65;99923.59;5060996;28;20231;-57
2023/07/01 09:01:16;;;;;;;4.78;1.58;;;;;;;22.10;44.82;99920.25;5064397;28;20131;-51
2023/07/01 09:03:47;;;;;;;3.65;1.55;;;;;;;22.30;43.02;99915.25;5067350;28;20055;-51
2023/07/01 09:06:15;;;;;;;5.60;1.70;;;;;;;22.02;43.84;99922.19;5067356;28;20052;-56
2023/07/01 09:08:42;;;;;;;2.15;1.50;;;;;;;22.25;44.08;99917.66;5064349;28;20084;-54
2023/07/01 09:11:11;;;;;;;3.45;1.63;;;;;;;22.25;43.30;99912.28;5068114;28;20154;-54
2023/07/01 09:13:38;;;;;;;5.25;2.30;;;;;;;21.97;42.00;99912.00;5065728;28;20052;-56
2023/07/01 09:16:05;;;;;;;10.68;2.28;;;;;;;21.92;42.75;99904.50;5064107;28;20143;-57
2023/07/01 09:18:34;;;;;;;8.20;2.30;;;;;;;22.03;42.94;99911.28;5068683;28;20777;-53
2023/07/01 09:21:16;;;;;;;5.53;2.05;;;;;;;22.18;43.05;99897.94;5069047;28;20052;-54
2023/07/01 09:23:43;;;;;;;3.45;1.65;;;;;;;22.28;43.78;99900.34;5095537;22;20071;-47
2023/07/01 09:26:14;;;;;;;6.88;1.65;;;;;;;22.49;44.21;99895.91;5088955;28;20120;-50
2023/07/01 09:28:44;;;;;;;4.88;2.08;;;;;;;22.73;43.16;99892.09;5086799;28;20047;-47
2023/07/01 09:31:13;;;;;;;4.95;2.00;;;;;;;22.67;43.99;99894.72;5083581;28;20117;-48
2023/07/01 09:33:57;;;;;;;4.00;1.48;;;;;;;22.79;43.11;99903.97;5075254;28;20456;-45
2023/07/01 09:36:28;;;;;;;7.43;2.63;;;;;;;22.90;43.27;99881.19;5071595;28;20052;-47
2023/07/01 09:38:55;;;;;;;8.38;1.80;;;;;;;22.98;43.28;99881.91;5071262;28;20139;-47
2023/07/01 09:41:26;;;;;;;4.68;1.58;;;;;;;23.24;43.66;99867.97;5067896;28;20055;-48
2023/07/01 09:43:56;;;;;;;7.30;2.00;;;;;;;22.87;42.68;99862.75;5068249;28;20063;-51
2023/07/01 09:46:24;;;;;;;7.63;2.17;;;;;;;22.80;42.80;99868.03;5063117;28;20300;-48
2023/07/01 09:48:56;;;;;;;4.47;1.55;;;;;;;22.81;42.91;99874.25;5063244;28;20045;-47
2023/07/01 09:51:25;;;;;;;3.95;1.88;;;;;;;22.94;42.48;99863.69;5062318;28;20380;-47
2023/07/01 09:53:52;;;;;;;3.25;1.85;;;;;;;22.86;42.63;99844.97;5068792;28;20534;-52
2023/07/01 09:56:20;;;;;;;5.93;1.70;;;;;;;22.72;43.29;99842.16;5066253;28;20044;-48
2023/07/01 09:58:49;;;;;;;4.20;1.73;;;;;;;23.03;43.11;99867.94;5063025;28;20075;-47
2023/07/01 10:01:17;;;;;;;7.22;2.05;;;;;;;23.03;43.32;99845.63;5065099;28;20461;-51
2023/07/01 10:03:45;;;;;;;3.88;1.63;;;;;;;23.21;42.98;99849.53;5068070;28;20703;-46
2023/07/01 10:06:12;;;;;;;6.53;1.73;;;;;;;23.49;42.09;99844.22;5067805;28;20140;-49
2023/07/01 10:08:41;;;;;;;4.65;1.98;;;;;;;23.57;41.76;99850.50;5068639;28;20071;-52
2023/07/01 10:11:15;;;;;;;3.53;1.90;;;;;;;23.60;41.81;99844.72;5066540;28;20427;-51
2023/07/01 10:13:46;;;;;;;4.90;1.83;;;;;;;23.83;41.64;99833.78;5066201;28;20509;-47
2023/07/01 10:16:13;;;;;;;4.32;2.28;;;;;;;23.95;41.15;99834.88;5048700;28;20136;-52
2023/07/01 10:18:41;;;;;;;5.97;1.98;;;;;;;23.99;41.03;99831.59;5044958;28;20048;-50
2023/07/01 10:21:31;;;;;;;6.97;2.08;;;;;;;24.18;41.16;99843.53;5050788;28;20139;-48
2023/07/01 10:23:59;;;;;;;8.95;2.33;;;;;;;23.82;41.68;99824.03;5062011;28;20159;-48
2023/07/01 10:26:34;;;;;;;5.70;1.90;;;;;;;24.02;41.42;99835.78;5066306;28;20144;-52
2023/07/01 10:29:29;;;;;;;2.63;1.83;;;;;;;24.25;39.95;99822.03;5048727;28;20076;-47
2023/07/01 10:32:08;;;;;;;6.05;3.05;;;;;;;24.12;40.88;99806.66;5060781;28;20063;-49
2023/07/01 10:34:54;;;;;;;6.07;2.08;;;;;;;24.43;40.54;99802.72;5067379;28;20202;-49
2023/07/01 10:37:29;;;;;;;5.75;2.40;;;;;;;24.09;40.19;99807.06;5056843;28;20493;-48
2023/07/01 10:39:57;;;;;;;5.43;1.87;;;;;;;24.17;40.17;99806.06;5064044;28;20056;-49
2023/07/01 10:42:31;;;;;;;4.40;1.95;;;;;;;24.37;41.31;99807.03;5072340;28;20072;-48
2023/07/01 10:45:10;;;;;;;5.28;2.20;;;;;;;24.55;40.36;99798.44;5068770;28;20552;-53
2023/07/01 10:47:44;;;;;;;5.38;2.15;;;;;;;24.80;39.72;99784.41;5068003;28;20048;-47
2023/07/01 10:50:15;;;;;;;5.78;2.20;;;;;;;24.74;41.18;99786.88;5063912;28;20159;-49
2023/07/01 10:52:55;;;;;;;8.85;2.38;;;;;;;25.13;39.67;99793.44;5064273;28;20103;-47
2023/07/01 10:55:44;;;;;;;6.05;1.90;;;;;;;25.00;39.14;99775.34;5068232;28;20131;-48
2023/07/01 10:58:21;;;;;;;4.10;1.70;;;;;;;25.08;39.57;99784.28;5069223;28;20408;-51
2023/07/01 11:00:52;;;;;;;3.63;2.10;;;;;;;25.28;39.72;99781.63;5062850;28;20491;-46
2023/07/01 11:03:38;;;;;;;7.75;2.25;;;;;;;25.69;38.53;99784.91;5068356;28;20412;-51
2023/07/01 11:06:07;;;;;;;7.95;2.67;;;;;;;25.87;39.00;99787.00;5071818;28;20143;-49
2023/07/01 11:08:49;;;;;;;8.93;2.13;;;;;;;26.00;38.20;99770.78;5071033;28;20060;-48
2023/07/01 11:11:26;;;;;;;5.30;2.00;;;;;;;25.84;38.75;99763.16;5067647;28;20584;-53
2023/07/01 11:13:55;;;;;;;4.60;1.60;;;;;;;25.74;38.81;99762.72;5063542;28;20538;-50
2023/07/01 11:16:22;;;;;;;5.70;1.95;;;;;;;25.49;38.76;99759.88;5062969;28;20152;-50
2023/07/01 11:18:51;;;;;;;5.60;2.30;;;;;;;25.09;39.56;99753.66;5069117;28;20049;-53
2023/07/01 11:21:21;;;;;;;5.93;2.10;;;;;;;24.75;40.00;99756.25;5071646;28;20044;-50
2023/07/01 11:23:54;;;;;;;5.53;1.92;;;;;;;24.66;41.08;99753.94;5065796;28;20143;-46
2023/07/01 11:26:24;;;;;;;5.15;1.95;;;;;;;24.74;41.33;99749.19;5063102;28;20049;-46
2023/07/01 11:28:52;;;;;;;2.63;1.65;;;;;;;24.97;41.07;99745.31;5064706;28;20563;-48
2023/07/01 11:31:24;;;;;;;5.78;1.90;;;;;;;24.90;40.61;99737.22;5065715;28;20110;-46
2023/07/01 11:33:53;;;;;;;3.97;2.03;;;;;;;25.33;40.66;99744.13;5064980;28;20135;-49
2023/07/01 11:36:34;;;;;;;4.85;2.08;;;;;;;25.43;39.83;99747.22;5067690;28;20144;-49
2023/07/01 11:39:09;;;;;;;5.80;2.00;;;;;;;25.65;40.04;99740.56;5068702;28;20431;-48